createdAt,value
2018-08-25T00:01:11.467Z,99788.84
2018-08-25T00:03:39.849Z,99787.16
2018-08-25T00:06:08.413Z,99776.63
2018-08-25T00:08:37.986Z,99778.78
2018-08-25T00:11:07.298Z,99779.89
2018-08-25T00:13:35.897Z,99768.48
2018-08-25T00:16:04.380Z,99770.41
2018-08-25T00:18:33.040Z,99770.06
2018-08-25T00:21:01.486Z,99766.03
2018-08-25T00:23:29.939Z,99758.20
2018-08-25T00:25:58.878Z,99762.77
2018-08-25T00:28:27.313Z,99760.09
2018-08-25T00:31:00.800Z,99765.80
2018-08-25T00:33:29.237Z,99768.59
2018-08-25T00:35:57.685Z,99772.07
2018-08-25T00:38:26.144Z,99779.36
2018-08-25T00:40:54.493Z,99781.47
2018-08-25T00:43:22.985Z,99783.92
2018-08-25T00:45:51.475Z,99791.43
2018-08-25T00:48:19.891Z,99784.02
2018-08-25T00:50:48.267Z,99779.10
2018-08-25T00:53:16.644Z,99772.73
2018-08-25T00:55:45.119Z,99767.82
2018-08-25T00:58:13.721Z,99762.77
2018-08-25T01:00:42.468Z,99767.38
2018-08-25T01:03:10.918Z,99769.27
2018-08-25T01:05:39.460Z,99772.83
2018-08-25T01:08:07.918Z,99768.70
2018-08-25T01:10:37.734Z,99781.44
2018-08-25T01:13:07.303Z,99778.10
2018-08-25T01:15:35.784Z,99780.09
2018-08-25T01:18:04.274Z,99779.86
2018-08-25T01:20:33.168Z,99792.63
2018-08-25T01:23:01.591Z,99791.39
2018-08-25T01:25:30.040Z,99791.84
2018-08-25T01:27:58.455Z,99799.31
2018-08-25T01:30:27.142Z,99804.25
2018-08-25T01:32:55.526Z,99802.69
2018-08-25T01:35:23.939Z,99794.74
2018-08-25T01:37:52.862Z,99785.66
2018-08-25T01:40:21.248Z,99785.77
2018-08-25T01:42:49.689Z,99773.36
2018-08-25T01:45:18.160Z,99778.00
2018-08-25T01:47:51.770Z,99766.70
2018-08-25T01:50:20.172Z,99762.45
2018-08-25T01:52:48.566Z,99768.02
2018-08-25T01:55:17.111Z,99756.29
2018-08-25T01:57:45.572Z,99759.98
2018-08-25T02:00:14.062Z,99755.05
2018-08-25T02:02:42.608Z,99755.26
2018-08-25T02:05:11.049Z,99751.00
2018-08-25T02:07:39.528Z,99751.67
2018-08-25T02:10:07.992Z,99749.02
2018-08-25T02:12:36.373Z,99741.09
2018-08-25T02:15:04.837Z,99739.20
2018-08-25T02:17:33.297Z,99735.73
2018-08-25T02:20:01.750Z,99739.10
2018-08-25T02:22:30.170Z,99737.86
2018-08-25T02:24:58.615Z,99739.85
2018-08-25T02:27:27.060Z,99734.05
2018-08-25T02:29:55.553Z,99741.89
2018-08-25T02:32:23.968Z,99739.55
2018-08-25T02:34:52.330Z,99734.37
2018-08-25T02:37:20.809Z,99735.29
2018-08-25T02:39:50.639Z,99730.03
2018-08-25T02:42:19.040Z,99723.09
2018-08-25T02:44:47.458Z,99718.81
2018-08-25T02:47:16.349Z,99702.05
2018-08-25T02:49:45.727Z,99695.47
2018-08-25T02:52:14.212Z,99679.27
2018-08-25T02:54:45.255Z,99670.54
2018-08-25T02:57:13.932Z,99668.64
2018-08-25T02:59:42.584Z,99669.56
2018-08-25T03:02:11.240Z,99670.91
2018-08-25T03:04:39.899Z,99676.13
2018-08-25T03:07:08.453Z,99668.77
2018-08-25T03:09:37.053Z,99672.13
2018-08-25T03:12:05.670Z,99669.67
2018-08-25T03:14:34.280Z,99673.58
2018-08-25T03:17:02.872Z,99669.88
2018-08-25T03:19:31.468Z,99672.79
2018-08-25T03:22:00.096Z,99680.61
2018-08-25T03:24:28.689Z,99680.41
2018-08-25T03:26:57.367Z,99677.60
2018-08-25T03:29:25.976Z,99682.08
2018-08-25T03:31:54.574Z,99687.31
2018-08-25T03:34:23.275Z,99675.35
2018-08-25T03:36:51.692Z,99677.14
2018-08-25T03:39:20.150Z,99676.80
2018-08-25T03:41:48.520Z,99674.12
2018-08-25T03:44:16.921Z,99669.75
2018-08-25T03:46:45.330Z,99661.94
2018-08-25T03:49:13.770Z,99666.08
2018-08-25T03:51:42.181Z,99670.22
2018-08-25T03:54:10.680Z,99671.97
2018-08-25T03:56:39.026Z,99665.37
2018-08-25T03:59:07.607Z,99666.94
2018-08-25T04:01:36.123Z,99667.27
2018-08-25T04:04:04.443Z,99667.91
2018-08-25T04:06:32.864Z,99668.34
2018-08-25T04:09:01.407Z,99666.20
2018-08-25T04:11:29.884Z,99670.80
2018-08-25T04:13:58.328Z,99672.45
2018-08-25T04:16:26.894Z,99669.88
2018-08-25T04:18:55.268Z,99674.02
2018-08-25T04:21:23.762Z,99670.34
2018-08-25T04:23:52.132Z,99678.72
2018-08-25T04:26:20.649Z,99679.05
2018-08-25T04:28:49.135Z,99681.39
2018-08-25T04:31:17.614Z,99676.91
2018-08-25T04:33:46.104Z,99673.22
2018-08-25T04:36:14.592Z,99682.50
2018-08-25T04:38:43.033Z,99678.95
2018-08-25T04:41:11.476Z,99671.44
2018-08-25T04:43:39.853Z,99673.02
2018-08-25T04:46:08.370Z,99675.23
2018-08-25T04:48:36.756Z,99678.38
2018-08-25T04:51:05.196Z,99676.06
2018-08-25T04:53:33.707Z,99677.27
2018-08-25T04:56:02.084Z,99679.95
2018-08-25T04:58:30.469Z,99676.16
2018-08-25T05:00:58.884Z,99677.40
2018-08-25T05:03:27.324Z,99674.28
2018-08-25T05:05:55.978Z,99673.06
2018-08-25T05:08:24.381Z,99680.28
2018-08-25T05:10:52.735Z,99678.17
2018-08-25T05:13:21.119Z,99676.26
2018-08-25T05:15:49.598Z,99677.81
2018-08-25T05:18:17.957Z,99675.03
2018-08-25T05:20:46.323Z,99676.80
2018-08-25T05:23:14.767Z,99676.27
2018-08-25T05:25:43.217Z,99667.42
2018-08-25T05:28:11.588Z,99669.00
2018-08-25T05:30:40.163Z,99667.80
2018-08-25T05:33:08.548Z,99665.00
2018-08-25T05:35:37.008Z,99667.11
2018-08-25T05:38:05.526Z,99661.41
2018-08-25T05:40:33.944Z,99662.00
2018-08-25T05:43:02.421Z,99660.98
2018-08-25T05:45:30.855Z,99662.12
2018-08-25T05:47:59.413Z,99674.98
2018-08-25T05:50:28.025Z,99667.25
2018-08-25T05:52:56.558Z,99670.50
2018-08-25T05:55:24.966Z,99679.33
2018-08-25T05:57:53.467Z,99672.03
2018-08-25T06:00:22.040Z,99671.48
2018-08-25T06:02:50.606Z,99674.06
2018-08-25T06:05:19.105Z,99677.98
2018-08-25T06:07:47.841Z,99679.12
2018-08-25T06:10:16.934Z,99682.67
2018-08-25T06:12:45.354Z,99677.42
2018-08-25T06:15:13.855Z,99678.52
2018-08-25T06:17:42.350Z,99683.25
2018-08-25T06:20:10.800Z,99674.98
2018-08-25T06:22:39.272Z,99679.55
2018-08-25T06:25:08.473Z,99675.08
2018-08-25T06:27:36.922Z,99671.08
2018-08-25T06:30:05.718Z,99671.55
2018-08-25T06:32:34.115Z,99660.13
2018-08-25T06:35:02.594Z,99671.66
2018-08-25T06:37:31.042Z,99660.81
2018-08-25T06:39:59.488Z,99671.44
2018-08-25T06:42:27.935Z,99661.16
2018-08-25T06:44:56.352Z,99664.42
2018-08-25T06:47:24.938Z,99662.84
2018-08-25T06:49:53.422Z,99658.36
2018-08-25T06:52:22.003Z,99658.82
2018-08-25T06:54:50.372Z,99660.93
2018-08-25T06:57:18.760Z,99665.54
2018-08-25T06:59:47.246Z,99663.63
2018-08-25T07:02:15.718Z,99661.84
2018-08-25T07:04:44.157Z,99667.44
2018-08-25T07:07:12.591Z,99666.55
2018-08-25T07:09:40.978Z,99671.93
2018-08-25T07:12:10.086Z,99671.48
2018-08-25T07:14:39.001Z,99675.73
2018-08-25T07:17:07.833Z,99679.44
2018-08-25T07:19:36.990Z,99685.80
2018-08-25T07:22:06.228Z,99679.98
2018-08-25T07:24:34.918Z,99673.92
2018-08-25T07:27:03.397Z,99680.06
2018-08-25T07:29:31.899Z,99672.69
2018-08-25T07:32:00.503Z,99676.26
2018-08-25T07:34:28.959Z,99683.63
2018-08-25T07:36:57.631Z,99681.25
2018-08-25T07:39:26.230Z,99687.30
2018-08-25T07:41:54.724Z,99683.58
2018-08-25T07:44:23.176Z,99687.95
2018-08-25T07:46:51.830Z,99681.02
2018-08-25T07:49:20.268Z,99679.09
2018-08-25T07:51:48.720Z,99671.23
2018-08-25T07:54:17.102Z,99673.34
2018-08-25T07:56:45.587Z,99668.06
2018-08-25T07:59:14.353Z,99669.70
2018-08-25T08:01:42.661Z,99662.31
2018-08-25T08:04:11.113Z,99655.47
2018-08-25T08:06:39.540Z,99661.95
2018-08-25T08:09:09.397Z,99663.91
2018-08-25T08:11:37.853Z,99654.24
2018-08-25T08:14:06.334Z,99659.79
2018-08-25T08:16:34.876Z,99658.41
2018-08-25T08:19:03.533Z,99649.22
2018-08-25T08:21:32.037Z,99646.70
2018-08-25T08:24:02.884Z,99649.13
2018-08-25T08:26:36.180Z,99643.07
2018-08-25T08:29:05.169Z,99653.17
2018-08-25T08:31:34.641Z,99647.53
2018-08-25T08:34:03.161Z,99646.18
2018-08-25T08:36:31.857Z,99643.36
2018-08-25T08:39:00.470Z,99634.16
2018-08-25T08:41:29.000Z,99642.80
2018-08-25T08:43:57.379Z,99629.45
2018-08-25T08:46:31.087Z,99625.70
2018-08-25T08:48:59.523Z,99627.73
2018-08-25T08:51:28.102Z,99623.02
2018-08-25T08:53:56.613Z,99627.58
2018-08-25T08:56:25.279Z,99626.95
2018-08-25T08:58:53.711Z,99624.34
2018-08-25T09:01:22.292Z,99616.42
2018-08-25T09:03:50.773Z,99619.05
2018-08-25T09:06:19.222Z,99629.61
2018-08-25T09:08:47.999Z,99619.38
2018-08-25T09:11:16.504Z,99616.36
2018-08-25T09:13:45.186Z,99622.34
2018-08-25T09:16:13.826Z,99617.80
2018-08-25T09:18:42.379Z,99623.98
2018-08-25T09:21:10.995Z,99621.08
2018-08-25T09:23:39.441Z,99608.44
2018-08-25T09:26:08.055Z,99612.48
2018-08-25T09:28:36.590Z,99606.80
2018-08-25T09:31:05.054Z,99612.23
2018-08-25T09:33:33.810Z,99610.92
2018-08-25T09:36:02.440Z,99610.77
2018-08-25T09:38:31.113Z,99620.06
2018-08-25T09:40:59.645Z,99610.91
2018-08-25T09:43:28.244Z,99610.42
2018-08-25T09:45:56.762Z,99602.48
2018-08-25T09:48:25.230Z,99596.70
2018-08-25T09:50:53.708Z,99597.59
2018-08-25T09:53:22.435Z,99599.77
2018-08-25T09:55:52.089Z,99596.03
2018-08-25T09:58:20.574Z,99594.40
2018-08-25T10:00:53.180Z,99596.05
2018-08-25T10:03:21.677Z,99605.20
2018-08-25T10:05:50.188Z,99599.55
2018-08-25T10:08:19.603Z,99598.98
2018-08-25T10:10:48.285Z,99606.67
2018-08-25T10:13:16.860Z,99591.61
2018-08-25T10:15:45.363Z,99591.48
2018-08-25T10:18:13.773Z,99590.28
2018-08-25T10:20:42.248Z,99586.59
2018-08-25T10:23:10.764Z,99583.94
2018-08-25T10:25:39.506Z,99580.69
2018-08-25T10:28:13.146Z,99583.45
2018-08-25T10:30:41.637Z,99575.84
2018-08-25T10:33:10.226Z,99578.83
2018-08-25T10:35:39.130Z,99571.77
2018-08-25T10:38:07.743Z,99580.44
2018-08-25T10:40:36.545Z,99580.30
2018-08-25T10:43:05.025Z,99574.80
2018-08-25T10:45:33.719Z,99573.88
2018-08-25T10:48:07.436Z,99570.12
2018-08-25T10:50:36.048Z,99590.42
2018-08-25T10:53:04.627Z,99583.53
2018-08-25T10:55:34.115Z,99581.12
2018-08-25T10:58:02.704Z,99575.85
2018-08-25T11:00:31.253Z,99594.56
2018-08-25T11:02:59.669Z,99594.34
2018-08-25T11:05:28.283Z,99593.63
2018-08-25T11:08:01.747Z,99605.31
2018-08-25T11:10:30.167Z,99605.06
2018-08-25T11:12:59.080Z,99616.09
2018-08-25T11:15:27.868Z,99618.11
2018-08-25T11:17:56.479Z,99623.62
2018-08-25T11:20:25.058Z,99616.81
2018-08-25T11:22:53.596Z,99629.73
2018-08-25T11:25:22.101Z,99653.50
2018-08-25T11:27:50.589Z,99654.38
2018-08-25T11:30:19.079Z,99672.70
2018-08-25T11:32:47.563Z,99663.81
2018-08-25T11:35:16.171Z,99672.29
2018-08-25T11:37:44.858Z,99658.02
2018-08-25T11:40:13.433Z,99665.65
2018-08-25T11:42:42.118Z,99666.34
2018-08-25T11:45:10.567Z,99669.02
2018-08-25T11:47:39.362Z,99673.52
2018-08-25T11:50:07.833Z,99679.94
2018-08-25T11:52:36.402Z,99687.13
2018-08-25T11:55:04.968Z,99685.23
2018-08-25T11:57:33.543Z,99688.60
2018-08-25T12:00:01.980Z,99695.53
2018-08-25T12:02:30.796Z,99695.52
2018-08-25T12:04:59.347Z,99700.23
2018-08-25T12:07:30.844Z,99697.09
2018-08-25T12:10:03.471Z,99695.31
2018-08-25T12:12:32.778Z,99687.15
2018-08-25T12:15:01.722Z,99682.33
2018-08-25T12:17:30.512Z,99681.98
2018-08-25T12:19:59.013Z,99683.32
2018-08-25T12:22:27.466Z,99681.28
2018-08-25T12:24:55.901Z,99682.05
2018-08-25T12:27:24.385Z,99679.56
2018-08-25T12:29:52.946Z,99679.65
2018-08-25T12:32:21.469Z,99679.94
2018-08-25T12:34:50.211Z,99683.38
2018-08-25T12:37:18.717Z,99667.34
2018-08-25T12:39:47.134Z,99669.77
2018-08-25T12:42:15.656Z,99667.22
2018-08-25T12:44:44.139Z,99667.31
2018-08-25T12:47:20.871Z,99666.74
2018-08-25T12:49:49.423Z,99660.47
2018-08-25T12:52:17.897Z,99667.91
2018-08-25T12:54:46.480Z,99665.63
2018-08-25T12:57:15.103Z,99662.59
2018-08-25T12:59:43.696Z,99653.58
2018-08-25T13:02:12.251Z,99659.73
2018-08-25T13:04:41.478Z,99652.13
2018-08-25T13:07:10.508Z,99649.39
2018-08-25T13:09:39.207Z,99645.55
2018-08-25T13:12:07.695Z,99651.06
2018-08-25T13:14:36.516Z,99655.75
2018-08-25T13:17:05.373Z,99654.91
2018-08-25T13:19:34.004Z,99650.98
2018-08-25T13:22:02.584Z,99643.97
2018-08-25T13:24:31.322Z,99640.00
2018-08-25T13:26:59.872Z,99637.08
2018-08-25T13:29:28.693Z,99644.82
2018-08-25T13:31:57.146Z,99642.70
2018-08-25T13:34:25.626Z,99652.08
2018-08-25T13:36:54.183Z,99641.72
2018-08-25T13:39:22.637Z,99641.91
2018-08-25T13:41:51.143Z,99641.47
2018-08-25T13:44:19.656Z,99637.42
2018-08-25T13:46:48.107Z,99642.31
2018-08-25T13:49:16.652Z,99639.12
2018-08-25T13:51:45.088Z,99636.13
2018-08-25T13:54:13.713Z,99635.39
2018-08-25T13:57:00.893Z,99646.36
2018-08-25T13:59:29.250Z,99652.46
2018-08-25T14:01:57.818Z,99654.56
2018-08-25T14:04:26.315Z,99654.20
2018-08-25T14:06:54.822Z,99654.59
2018-08-25T14:09:23.284Z,99652.30
2018-08-25T14:11:51.890Z,99665.27
2018-08-25T14:14:20.506Z,99655.11
2018-08-25T14:16:49.167Z,99656.91
2018-08-25T14:19:17.656Z,99666.11
2018-08-25T14:21:46.338Z,99660.95
2018-08-25T14:24:14.846Z,99664.34
2018-08-25T14:26:48.481Z,99667.55
2018-08-25T14:29:16.995Z,99648.17
2018-08-25T14:31:47.113Z,99643.73
2018-08-25T14:34:15.843Z,99646.67
2018-08-25T14:36:44.847Z,99655.73
2018-08-25T14:39:13.967Z,99660.84
2018-08-25T14:41:43.058Z,99657.07
2018-08-25T14:44:12.477Z,99662.41
2018-08-25T14:46:41.416Z,99655.17
2018-08-25T14:49:09.963Z,99653.63
2018-08-25T14:51:38.719Z,99657.84
2018-08-25T14:54:07.406Z,99654.73
2018-08-25T14:59:33.456Z,99673.09
2018-08-25T15:02:02.135Z,99654.19
2018-08-25T15:04:30.735Z,99655.86
2018-08-25T15:06:59.670Z,99662.17
2018-08-25T15:09:28.242Z,99648.20
2018-08-25T15:11:56.887Z,99651.56
2018-08-25T15:14:25.268Z,99657.41
2018-08-25T15:16:53.871Z,99658.77
2018-08-25T15:19:23.558Z,99661.84
2018-08-25T15:21:52.141Z,99659.87
2018-08-25T15:24:20.775Z,99663.14
2018-08-25T15:26:49.308Z,99670.27
2018-08-25T15:29:18.005Z,99676.14
2018-08-25T15:31:47.108Z,99666.18
2018-08-25T15:34:15.590Z,99672.05
2018-08-25T15:36:44.201Z,99675.00
2018-08-25T15:39:14.703Z,99671.80
2018-08-25T15:41:43.565Z,99667.28
2018-08-25T15:44:12.189Z,99661.86
2018-08-25T15:46:40.753Z,99657.20
2018-08-25T15:49:09.224Z,99653.67
2018-08-25T15:51:37.692Z,99673.59
2018-08-25T15:54:06.967Z,99679.78
2018-08-25T15:56:36.608Z,99676.20
2018-08-25T15:59:05.423Z,99683.20
2018-08-25T16:01:33.999Z,99683.42
2018-08-25T16:04:02.605Z,99684.55
2018-08-25T16:06:31.679Z,99679.25
2018-08-25T16:09:01.898Z,99685.44
2018-08-25T16:11:31.744Z,99687.55
2018-08-25T16:14:00.471Z,99689.39
2018-08-25T16:16:29.067Z,99696.02
2018-08-25T16:18:57.756Z,99697.81
2018-08-25T16:21:26.223Z,99697.19
2018-08-25T16:23:54.780Z,99704.66
2018-08-25T16:26:23.621Z,99701.13
2018-08-25T16:28:52.070Z,99697.67
2018-08-25T16:31:20.626Z,99703.50
2018-08-25T16:33:49.367Z,99702.58
2018-08-25T16:36:17.957Z,99706.95
2018-08-25T16:38:47.149Z,99715.38
2018-08-25T16:41:15.627Z,99711.47
2018-08-25T16:43:44.092Z,99714.64
2018-08-25T16:46:13.069Z,99719.28
2018-08-25T16:48:41.665Z,99720.30
2018-08-25T16:51:10.143Z,99717.73
2018-08-25T16:53:39.034Z,99731.09
2018-08-25T16:56:12.637Z,99723.59
2018-08-25T16:58:41.104Z,99723.27
2018-08-25T17:01:09.557Z,99720.05
2018-08-25T17:03:38.279Z,99723.45
2018-08-25T17:06:06.997Z,99744.53
2018-08-25T17:08:35.479Z,99742.77
2018-08-25T17:11:04.004Z,99744.05
2018-08-25T17:13:32.641Z,99736.99
2018-08-25T17:16:01.232Z,99733.55
2018-08-25T17:18:29.705Z,99739.58
2018-08-25T17:20:58.128Z,99738.36
2018-08-25T17:23:26.890Z,99737.36
2018-08-25T17:25:55.437Z,99739.82
2018-08-25T17:28:24.120Z,99744.97
2018-08-25T17:30:52.790Z,99745.84
2018-08-25T17:33:21.186Z,99746.19
2018-08-25T17:35:49.668Z,99741.81
2018-08-25T17:38:18.363Z,99749.65
2018-08-25T17:40:47.053Z,99751.22
2018-08-25T17:43:16.405Z,99752.56
2018-08-25T17:45:44.982Z,99757.52
2018-08-25T17:48:13.519Z,99755.83
2018-08-25T17:50:41.995Z,99759.43
2018-08-25T17:53:10.628Z,99762.77
2018-08-25T17:55:39.272Z,99762.11
2018-08-25T17:58:07.863Z,99770.05
2018-08-25T18:00:36.868Z,99764.36
2018-08-25T18:03:05.383Z,99765.92
2018-08-25T18:05:34.307Z,99775.31
2018-08-25T18:08:02.939Z,99777.99
2018-08-25T18:10:32.245Z,99784.05
2018-08-25T18:13:00.901Z,99792.64
2018-08-25T18:15:29.595Z,99789.52
2018-08-25T18:17:58.192Z,99792.44
2018-08-25T18:20:26.718Z,99804.05
2018-08-25T18:22:55.164Z,99805.17
2018-08-25T18:25:23.987Z,99808.42
2018-08-25T18:27:52.566Z,99805.17
2018-08-25T18:30:21.083Z,99806.96
2018-08-25T18:32:49.791Z,99816.00
2018-08-25T18:35:18.250Z,99818.13
2018-08-25T18:37:46.823Z,99816.55
2018-08-25T18:40:15.389Z,99829.06
2018-08-25T18:42:44.653Z,99826.38
2018-08-25T18:45:13.142Z,99833.30
2018-08-25T18:47:41.892Z,99831.29
2018-08-25T18:50:10.577Z,99845.38
2018-08-25T18:52:39.037Z,99842.23
2018-08-25T18:55:07.639Z,99848.50
2018-08-25T18:57:36.765Z,99850.02
2018-08-25T19:00:05.365Z,99856.83
2018-08-25T19:02:33.810Z,99856.03
2018-08-25T19:05:02.242Z,99861.50
2018-08-25T19:07:30.668Z,99860.80
2018-08-25T19:09:59.114Z,99861.13
2018-08-25T19:12:27.552Z,99864.92
2018-08-25T19:14:55.962Z,99864.37
2018-08-25T19:17:24.339Z,99870.48
2018-08-25T19:19:52.820Z,99875.84
2018-08-25T19:22:21.345Z,99874.46
2018-08-25T19:24:50.081Z,99879.92
2018-08-25T19:27:19.036Z,99879.59
2018-08-25T19:29:47.473Z,99890.69
2018-08-25T19:32:15.956Z,99888.35
2018-08-25T19:34:44.372Z,99889.93
2018-08-25T19:37:12.833Z,99891.27
2018-08-25T19:39:41.289Z,99898.66
2018-08-25T19:42:09.836Z,99894.86
2018-08-25T19:44:38.477Z,99898.55
2018-08-25T19:47:06.998Z,99899.89
2018-08-25T19:49:35.486Z,99902.14
2018-08-25T19:52:04.103Z,99903.53
2018-08-25T19:54:32.705Z,99913.78
2018-08-25T19:59:44.242Z,99917.95
2018-08-25T20:02:12.759Z,99919.48
2018-08-25T20:04:41.574Z,99919.67
2018-08-25T20:07:09.985Z,99920.09
2018-08-25T20:09:38.669Z,99925.22
2018-08-25T20:12:07.051Z,99921.85
2018-08-25T20:14:36.514Z,99918.13
2018-08-25T20:17:05.049Z,99923.59
2018-08-25T20:19:33.435Z,99921.80
2018-08-25T20:22:01.895Z,99920.08
2018-08-25T20:24:30.289Z,99922.22
2018-08-25T20:26:58.867Z,99932.37
2018-08-25T20:29:27.196Z,99932.77
2018-08-25T20:31:55.777Z,99934.73
2018-08-25T20:34:24.244Z,99939.64
2018-08-25T20:36:52.799Z,99943.28
2018-08-25T20:39:21.165Z,99952.98
2018-08-25T20:41:49.658Z,99947.72
2018-08-25T20:44:18.058Z,99943.31
2018-08-25T20:46:46.640Z,99948.31
2018-08-25T20:49:15.247Z,99954.05
2018-08-25T20:51:43.728Z,99955.48
2018-08-25T20:54:12.198Z,99953.28
2018-08-25T20:56:40.682Z,99951.09
2018-08-25T20:59:09.160Z,99951.09
2018-08-25T21:01:37.721Z,99945.91
2018-08-25T21:04:06.364Z,99947.81
2018-08-25T21:06:34.906Z,99949.72
2018-08-25T21:09:04.877Z,99950.50
2018-08-25T21:11:34.029Z,99953.33
2018-08-25T21:14:02.514Z,99954.70
2018-08-25T21:16:30.910Z,99956.11
2018-08-25T21:18:59.497Z,99959.53
2018-08-25T21:21:28.034Z,99965.48
2018-08-25T21:23:56.635Z,99964.63
2018-08-25T21:26:25.459Z,99971.94
2018-08-25T21:28:53.905Z,99970.16
2018-08-25T21:31:22.475Z,99977.21
2018-08-25T21:33:50.910Z,99975.34
2018-08-25T21:36:19.438Z,99986.05
2018-08-25T21:38:47.948Z,99982.58
2018-08-25T21:41:16.401Z,99980.22
2018-08-25T21:43:44.872Z,99982.12
2018-08-25T21:46:13.360Z,99989.36
2018-08-25T21:48:42.011Z,99989.84
2018-08-25T21:51:10.632Z,99996.20
2018-08-25T21:53:39.073Z,99995.67
2018-08-25T21:56:07.729Z,99998.28
2018-08-25T21:58:36.346Z,99999.63
2018-08-25T22:01:22.494Z,100004.91
2018-08-25T22:03:51.127Z,100004.44
2018-08-25T22:06:19.608Z,100012.80
2018-08-25T22:08:48.128Z,100024.77
2018-08-25T22:11:16.679Z,100024.31
2018-08-25T22:13:45.116Z,100018.88
2018-08-25T22:16:13.738Z,100035.11
2018-08-25T22:18:42.181Z,100034.38
2018-08-25T22:21:11.125Z,100034.22
2018-08-25T22:23:39.526Z,100038.88
2018-08-25T22:26:08.364Z,100042.83
2018-08-25T22:28:36.787Z,100043.23
2018-08-25T22:31:05.274Z,100046.92
2018-08-25T22:33:33.856Z,100048.51
2018-08-25T22:36:02.299Z,100046.15
2018-08-25T22:38:30.930Z,100052.06
2018-08-25T22:40:59.369Z,100050.73
2018-08-25T22:43:27.802Z,100052.77
2018-08-25T22:45:56.257Z,100055.44
2018-08-25T22:48:24.917Z,100060.55
2018-08-25T22:50:53.350Z,100060.63
2018-08-25T22:53:21.839Z,100057.27
2018-08-25T22:55:50.243Z,100060.34
2018-08-25T22:58:18.801Z,100064.67
2018-08-25T23:00:47.328Z,100068.61
2018-08-25T23:03:15.751Z,100065.61
2018-08-25T23:05:44.196Z,100067.91
2018-08-25T23:08:12.700Z,100072.77
2018-08-25T23:10:41.174Z,100066.31
2018-08-25T23:13:09.680Z,100072.07
2018-08-25T23:15:38.083Z,100077.18
2018-08-25T23:18:06.509Z,100073.71
2018-08-25T23:20:34.949Z,100071.19
2018-08-25T23:23:03.386Z,100070.70
2018-08-25T23:25:31.750Z,100062.84
2018-08-25T23:28:00.183Z,100062.82
2018-08-25T23:30:28.568Z,100058.41
2018-08-25T23:32:57.085Z,100052.36
2018-08-25T23:35:25.524Z,100056.98
2018-08-25T23:37:54.047Z,100056.47
2018-08-25T23:40:22.529Z,100051.68
2018-08-25T23:42:50.932Z,100058.52
2018-08-25T23:45:19.384Z,100066.44
2018-08-25T23:47:48.966Z,100069.89
2018-08-25T23:50:17.504Z,100070.03
2018-08-25T23:52:45.902Z,100070.91
2018-08-25T23:55:14.235Z,100071.44
2018-08-25T23:57:42.647Z,100074.50
